Time;durP1;ratioP1;P1;durP2;ratioP2;P2;SDS_P1;SDS_P2;PMS_P1;PMS_P2;Temp;Humidity;BMP_temperature;BMP_pressure;BME280_temperature;BME280_humidity;BME280_pressure;Samples;Min_cycle;Max_cycle;Signal;HPM_P1;HPM_P2
2022/06/20 00:01:20;;;;;;;9.35;2.47;;;;;;;18.74;100.00;96034.03;5047886;28;20609;-73
2022/06/20 00:03:48;;;;;;;10.77;2.45;;;;;;;18.46;100.00;96031.47;5047197;28;20113;-72
2022/06/20 00:06:17;;;;;;;8.55;2.78;;;;;;;18.53;100.00;96039.97;5048942;28;20127;-72
2022/06/20 00:08:43;;;;;;;15.40;2.65;;;;;;;18.57;100.00;96046.34;5050124;28;20052;-74
2022/06/20 00:11:16;;;;;;;11.75;2.85;;;;;;;18.35;100.00;96046.34;5052131;28;20040;-73
2022/06/20 00:13:45;;;;;;;12.23;2.65;;;;;;;18.29;100.00;96024.03;5033790;28;20183;-73
2022/06/20 00:16:16;;;;;;;9.45;2.60;;;;;;;18.18;100.00;96005.59;5051002;28;20041;-72
2022/06/20 00:18:43;;;;;;;8.68;2.55;;;;;;;17.78;100.00;96002.75;5051273;28;20091;-73
2022/06/20 00:21:12;;;;;;;10.23;2.45;;;;;;;17.59;100.00;96002.03;5052343;28;20044;-73
2022/06/20 00:23:37;;;;;;;13.75;3.47;;;;;;;17.79;100.00;95997.03;5051307;28;20041;-73
2022/06/20 00:26:03;;;;;;;14.70;2.67;;;;;;;18.00;100.00;95986.53;5049443;28;20052;-73
2022/06/20 00:28:28;;;;;;;9.82;2.38;;;;;;;18.15;100.00;95998.91;5050744;28;20130;-72
2022/06/20 00:30:55;;;;;;;9.02;2.47;;;;;;;18.20;100.00;96004.19;5048279;28;20124;-72
2022/06/20 00:33:21;;;;;;;13.07;2.85;;;;;;;18.26;100.00;96015.69;5049345;28;20463;-73
2022/06/20 00:35:46;;;;;;;11.32;2.20;;;;;;;18.29;100.00;96015.09;5051846;28;20082;-72
2022/06/20 00:38:17;;;;;;;12.77;3.13;;;;;;;18.30;100.00;96011.28;5047244;28;20506;-72
2022/06/20 00:40:47;;;;;;;12.07;2.78;;;;;;;18.08;100.00;96002.03;5051803;28;20181;-73
2022/06/20 00:43:19;;;;;;;10.68;2.47;;;;;;;17.87;100.00;96005.53;5049522;28;20688;-72
2022/06/20 00:45:47;;;;;;;13.75;2.53;;;;;;;17.85;100.00;96019.38;5048960;28;20032;-72
2022/06/20 00:48:37;;;;;;;11.13;2.55;;;;;;;17.18;100.00;96013.72;5048207;28;20581;-72
2022/06/20 00:51:15;;;;;;;9.95;2.20;;;;;;;16.98;100.00;96028.44;5050327;28;20049;-72
2022/06/20 00:53:50;;;;;;;11.70;2.33;;;;;;;17.14;100.00;96010.03;5049978;28;20041;-72
2022/06/20 00:56:28;;;;;;;12.05;2.80;;;;;;;16.97;100.00;96007.94;5050128;28;20492;-72
2022/06/20 00:59:01;;;;;;;11.38;2.65;;;;;;;16.99;100.00;96003.00;5048380;28;20036;-72
2022/06/20 01:01:41;;;;;;;10.95;2.08;;;;;;;16.95;100.00;95981.19;5047205;28;20474;-72
2022/06/20 01:04:21;;;;;;;6.97;2.58;;;;;;;17.20;100.00;96003.41;5051123;28;20046;-73
2022/06/20 01:06:53;;;;;;;9.95;2.42;;;;;;;17.47;100.00;96035.84;5050649;28;20117;-72
2022/06/20 01:09:23;;;;;;;9.80;2.33;;;;;;;17.50;100.00;96186.69;5050207;28;20051;-73
2022/06/20 01:11:56;;;;;;;8.50;1.92;;;;;;;17.13;100.00;96395.00;5048679;28;20037;-72
2022/06/20 01:14:38;;;;;;;15.35;2.15;;;;;;;16.71;100.00;96558.72;5047088;28;20049;-72
2022/06/20 01:17:15;;;;;;;21.10;3.85;;;;;;;15.38;100.00;96302.63;5062245;28;20496;-73
2022/06/20 01:20:04;;;;;;;34.42;4.15;;;;;;;14.83;100.00;96293.88;5031110;28;20033;-73
2022/06/20 01:22:53;;;;;;;22.10;3.35;;;;;;;14.58;100.00;96396.34;5049439;28;20482;-73
2022/06/20 01:25:47;;;;;;;30.98;2.70;;;;;;;14.20;100.00;96399.38;5065392;28;20114;-73
2022/06/20 01:28:17;;;;;;;9.60;2.15;;;;;;;13.88;100.00;96386.25;5027748;28;20048;-72
2022/06/20 01:30:44;;;;;;;11.25;2.42;;;;;;;13.96;100.00;96357.19;5038337;28;20045;-73
2022/06/20 01:33:12;;;;;;;12.48;2.20;;;;;;;13.99;100.00;96386.22;5049080;28;20712;-72
2022/06/20 01:38:26;;;;;;;32.17;2.90;;;;;;;13.97;100.00;96240.44;5051292;28;20064;-72
2022/06/20 01:43:37;;;;;;;14.73;2.30;;;;;;;14.15;100.00;96251.38;5049259;28;20047;-72
2022/06/20 01:46:09;;;;;;;13.80;2.45;;;;;;;14.27;100.00;96304.91;5046449;28;20086;-72
2022/06/20 01:48:39;;;;;;;10.60;2.45;;;;;;;14.49;100.00;96344.97;5048293;28;20040;-72
2022/06/20 01:51:11;;;;;;;4.35;1.70;;;;;;;14.55;100.00;96362.69;5047186;28;20972;-71
2022/06/20 01:53:37;;;;;;;3.58;1.60;;;;;;;14.50;100.00;96373.50;5048577;28;20043;-72
2022/06/20 01:56:04;;;;;;;5.35;1.88;;;;;;;14.51;100.00;96355.44;5050351;28;20037;-71
2022/06/20 01:58:36;;;;;;;6.43;2.08;;;;;;;14.48;100.00;96375.66;5048122;28;20472;-71
2022/06/20 02:01:03;;;;;;;17.85;2.22;;;;;;;14.06;100.00;96285.34;5048172;28;20072;-72
2022/06/20 02:03:33;;;;;;;5.38;1.75;;;;;;;13.47;100.00;96129.31;5038207;28;20025;-72
2022/06/20 02:06:00;;;;;;;5.68;1.60;;;;;;;13.27;100.00;96061.13;5048507;28;20056;-73
2022/06/20 02:08:26;;;;;;;6.18;1.90;;;;;;;13.03;100.00;95966.09;5049027;28;20062;-72
2022/06/20 02:10:59;;;;;;;3.47;1.42;;;;;;;13.09;100.00;95930.09;5048444;28;20593;-72
2022/06/20 02:13:27;;;;;;;6.32;2.00;;;;;;;13.32;100.00;95960.91;5048521;28;20051;-71
2022/06/20 02:15:58;;;;;;;3.13;1.67;;;;;;;13.25;100.00;96014.13;5050517;28;20032;-71
2022/06/20 02:18:27;;;;;;;6.53;1.77;;;;;;;13.59;100.00;96068.78;5044622;28;20047;-73
2022/06/20 02:20:56;;;;;;;5.57;1.73;;;;;;;13.62;100.00;96154.25;5049223;28;20036;-72
2022/06/20 02:23:28;;;;;;;6.55;1.67;;;;;;;13.29;100.00;96216.69;5050335;28;20399;-72
2022/06/20 02:25:55;;;;;;;6.57;2.05;;;;;;;13.46;100.00;96219.88;5047301;28;20127;-73
2022/06/20 02:28:51;;;;;;;5.93;1.75;;;;;;;13.65;100.00;96152.91;5046744;28;20041;-71
2022/06/20 02:31:17;;;;;;;4.97;1.70;;;;;;;13.72;100.00;96118.47;5047149;28;20392;-72
2022/06/20 02:33:46;;;;;;;5.45;1.60;;;;;;;13.80;100.00;96119.78;5045569;28;20071;-73
2022/06/20 02:36:12;;;;;;;4.00;1.77;;;;;;;13.75;100.00;96136.72;5048884;28;20036;-72
2022/06/20 02:38:38;;;;;;;6.57;1.60;;;;;;;13.87;100.00;96131.84;5049595;28;20044;-72
2022/06/20 02:41:03;;;;;;;4.82;1.83;;;;;;;14.21;100.00;96120.31;5045766;28;20052;-73
2022/06/20 02:43:39;;;;;;;7.60;2.22;;;;;;;14.47;100.00;96134.44;5036526;28;20040;-73
2022/06/20 02:46:10;;;;;;;6.18;1.90;;;;;;;14.66;100.00;96129.19;5050283;28;20064;-71
2022/06/20 02:48:38;;;;;;;5.70;1.75;;;;;;;14.74;100.00;96113.22;5049424;28;20051;-71
2022/06/20 02:51:06;;;;;;;9.13;2.13;;;;;;;14.76;100.00;96100.25;5049369;28;20367;-73
2022/06/20 02:53:40;;;;;;;8.45;2.13;;;;;;;14.70;100.00;96093.31;5050506;28;20040;-71
2022/06/20 02:56:12;;;;;;;10.27;2.80;;;;;;;14.68;100.00;96070.44;5047112;28;20037;-71
2022/06/20 02:58:45;;;;;;;3.63;1.77;;;;;;;14.79;100.00;96050.44;5045098;28;20041;-72
2022/06/20 03:01:16;;;;;;;4.03;1.80;;;;;;;14.62;100.00;96021.22;5046258;28;20045;-72
2022/06/20 03:03:49;;;;;;;4.32;2.03;;;;;;;14.65;100.00;95995.63;5049302;28;20056;-72
2022/06/20 03:06:32;;;;;;;3.78;1.85;;;;;;;14.73;100.00;95971.56;5044751;28;20032;-72
2022/06/20 03:08:58;;;;;;;10.73;2.50;;;;;;;14.77;100.00;95972.59;5047076;28;20412;-71
2022/06/20 03:11:27;;;;;;;4.65;2.00;;;;;;;14.49;100.00;95960.78;5046795;28;20040;-72
2022/06/20 03:13:55;;;;;;;4.13;1.85;;;;;;;14.29;100.00;95958.25;5049361;28;20060;-72
2022/06/20 03:16:21;;;;;;;4.82;2.08;;;;;;;14.19;100.00;95950.28;5048222;28;20641;-71
2022/06/20 03:18:49;;;;;;;7.47;1.90;;;;;;;14.26;100.00;95963.41;5044591;28;20048;-73
2022/06/20 03:21:22;;;;;;;5.15;2.20;;;;;;;14.13;100.00;95952.22;5047483;28;20047;-72
2022/06/20 03:23:50;;;;;;;8.82;2.40;;;;;;;14.37;100.00;95954.16;5050431;28;20043;-72
2022/06/20 03:26:19;;;;;;;6.60;2.03;;;;;;;14.18;100.00;95938.72;5047166;28;20122;-72
2022/06/20 03:28:45;;;;;;;5.90;2.30;;;;;;;14.29;100.00;95933.25;5046891;28;20418;-72
2022/06/20 03:31:11;;;;;;;3.67;2.08;;;;;;;14.32;100.00;95932.66;5026882;28;20044;-72
2022/06/20 03:33:38;;;;;;;4.75;2.22;;;;;;;14.28;100.00;95918.97;5048112;28;20093;-73
2022/06/20 03:36:13;;;;;;;6.40;2.20;;;;;;;14.27;100.00;95932.72;5044371;28;20044;-73
2022/06/20 03:38:41;;;;;;;6.93;2.75;;;;;;;14.21;100.00;95908.56;5046801;28;20037;-72
2022/06/20 03:41:09;;;;;;;6.88;2.55;;;;;;;14.21;100.00;95905.84;5042965;28;20262;-72
2022/06/20 03:43:36;;;;;;;7.25;2.45;;;;;;;14.18;100.00;95940.63;5046021;28;20048;-71
2022/06/20 03:46:10;;;;;;;11.13;2.45;;;;;;;14.33;100.00;95943.16;5047002;28;20064;-73
2022/06/20 03:48:40;;;;;;;5.90;2.40;;;;;;;14.37;100.00;95921.84;5046598;28;20056;-72
2022/06/20 03:51:18;;;;;;;12.35;3.05;;;;;;;14.45;100.00;95932.81;5047060;28;20686;-71
2022/06/20 03:53:55;;;;;;;10.18;2.25;;;;;;;14.48;100.00;95963.78;5048149;28;20045;-72
2022/06/20 03:56:34;;;;;;;8.38;2.58;;;;;;;14.39;100.00;95981.56;5043557;28;20507;-71
2022/06/20 03:59:22;;;;;;;10.25;3.38;;;;;;;14.33;100.00;96015.03;5046967;28;20037;-72
2022/06/20 04:02:03;;;;;;;8.02;2.72;;;;;;;14.34;100.00;96030.09;5045947;28;20098;-73
2022/06/20 04:04:40;;;;;;;13.35;2.90;;;;;;;14.41;100.00;96065.56;5061026;28;20448;-73
2022/06/20 04:07:17;;;;;;;11.63;2.42;;;;;;;14.47;100.00;96097.56;5047577;28;20037;-73
2022/06/20 04:13:17;;;;;;;6.13;2.30;;;;;;;14.30;100.00;96129.41;5030360;28;20128;-72
2022/06/20 04:15:49;;;;;;;7.07;2.38;;;;;;;14.44;100.00;96140.34;5029694;28;20358;-72
2022/06/20 04:18:29;;;;;;;7.50;2.80;;;;;;;14.39;100.00;96184.25;5043984;28;20162;-72
2022/06/20 04:20:58;;;;;;;14.87;2.53;;;;;;;14.11;100.00;96219.94;5047340;28;20073;-72
2022/06/20 04:23:38;;;;;;;7.95;2.35;;;;;;;14.13;100.00;96232.03;5050129;28;20558;-71
2022/06/20 04:27:00;;;;;;;9.10;2.42;;;;;;;14.39;100.00;96223.81;5044518;28;20060;-73
2022/06/20 04:29:35;;;;;;;5.78;2.40;;;;;;;14.51;100.00;96235.09;4986132;28;20050;-72
2022/06/20 04:32:17;;;;;;;7.40;2.15;;;;;;;14.59;100.00;96187.94;5042928;28;20048;-71
2022/06/20 04:34:48;;;;;;;5.05;2.25;;;;;;;14.28;100.00;96109.25;5034668;28;20037;-71
2022/06/20 04:37:19;;;;;;;9.93;2.90;;;;;;;14.06;100.00;96010.94;5047133;28;20050;-71
2022/06/20 04:40:02;;;;;;;9.30;2.70;;;;;;;14.14;100.00;96072.19;5047044;28;20041;-72
2022/06/20 04:42:37;;;;;;;6.93;2.55;;;;;;;14.29;100.00;96135.06;5048091;28;20450;-71
2022/06/20 04:45:32;;;;;;;5.63;2.80;;;;;;;14.51;100.00;96122.03;5043744;28;20048;-71
2022/06/20 04:48:04;;;;;;;6.18;2.88;;;;;;;14.55;100.00;96096.13;5046153;28;20478;-71
2022/06/20 04:50:33;;;;;;;7.68;2.67;;;;;;;14.51;100.00;96102.38;5044876;28;20032;-71
2022/06/20 04:53:08;;;;;;;5.90;2.58;;;;;;;14.28;100.00;96136.16;5048010;28;20314;-73
2022/06/20 04:55:38;;;;;;;15.77;3.30;;;;;;;14.19;100.00;96150.22;5051821;28;20221;-72
2022/06/20 04:58:09;;;;;;;88.70;4.82;;;;;;;14.20;100.00;96151.00;5048475;28;20049;-71
2022/06/20 05:00:40;;;;;;;13.60;3.80;;;;;;;14.30;100.00;96183.22;5047255;28;20040;-71
2022/06/20 05:03:20;;;;;;;10.13;3.25;;;;;;;14.27;100.00;96185.69;5048151;28;20047;-71
2022/06/20 05:05:49;;;;;;;9.63;3.13;;;;;;;14.17;100.00;96194.63;5049102;28;20092;-71
2022/06/20 05:08:20;;;;;;;14.43;3.60;;;;;;;14.23;100.00;96233.88;5050049;28;20125;-72
2022/06/20 05:10:59;;;;;;;18.77;3.78;;;;;;;14.27;100.00;96240.31;5052088;28;20075;-71
2022/06/20 05:13:44;;;;;;;57.03;4.95;;;;;;;14.14;100.00;96201.34;5048742;28;20040;-73
2022/06/20 05:16:27;;;;;;;59.90;5.00;;;;;;;13.76;100.00;96196.69;5046049;28;21108;-71
2022/06/20 05:18:57;;;;;;;31.70;3.97;;;;;;;13.91;100.00;96189.34;5046639;28;20476;-71
2022/06/20 05:21:28;;;;;;;24.60;4.22;;;;;;;13.96;100.00;96182.34;5032126;28;20508;-72
2022/06/20 05:23:58;;;;;;;5.57;3.40;;;;;;;14.04;100.00;96206.78;5048830;28;20043;-72
2022/06/20 05:26:28;;;;;;;6.00;3.08;;;;;;;14.01;100.00;96225.34;5047752;28;20052;-73
2022/06/20 05:28:57;;;;;;;6.80;3.20;;;;;;;14.02;100.00;96257.38;5047657;28;20105;-72
2022/06/20 05:31:36;;;;;;;4.57;3.03;;;;;;;14.06;100.00;96276.47;5046507;28;20045;-72
2022/06/20 05:34:12;;;;;;;12.18;3.85;;;;;;;14.11;100.00;96288.00;5048906;28;20455;-72
2022/06/20 05:37:03;;;;;;;5.97;3.47;;;;;;;14.02;100.00;96295.03;5049271;28;20678;-72
2022/06/20 05:39:34;;;;;;;6.78;4.07;;;;;;;13.93;100.00;96302.88;5033042;28;20410;-72
2022/06/20 05:42:00;;;;;;;5.80;3.70;;;;;;;14.02;100.00;96310.38;5051969;28;20317;-72
2022/06/20 05:44:26;;;;;;;6.78;3.60;;;;;;;14.07;100.00;96294.22;5048930;28;20039;-72
2022/06/20 05:47:02;;;;;;;6.32;3.55;;;;;;;14.18;100.00;96287.72;5061883;28;20057;-72
2022/06/20 05:49:50;;;;;;;4.35;2.50;;;;;;;14.26;100.00;96270.19;5047649;28;20434;-72
2022/06/20 05:52:21;;;;;;;7.57;2.60;;;;;;;14.28;100.00;96252.69;5048569;28;20115;-72
2022/06/20 05:54:54;;;;;;;4.03;2.53;;;;;;;14.27;100.00;96231.44;5050564;28;20651;-72
2022/06/20 05:57:23;;;;;;;5.90;2.85;;;;;;;14.28;100.00;96216.91;5049451;28;20052;-72
2022/06/20 05:59:54;;;;;;;4.00;2.75;;;;;;;14.32;100.00;96205.31;5047611;28;20029;-72
2022/06/20 06:02:29;;;;;;;4.68;2.92;;;;;;;14.44;100.00;96183.41;5049907;28;20439;-72
2022/06/20 06:05:12;;;;;;;4.57;2.20;;;;;;;14.26;100.00;96176.81;5046885;28;20492;-72
2022/06/20 06:08:01;;;;;;;3.35;1.73;;;;;;;14.23;100.00;96180.84;5048123;28;20037;-72
2022/06/20 06:10:48;;;;;;;4.15;1.88;;;;;;;14.28;100.00;96181.91;5047614;28;20063;-72
2022/06/20 06:13:33;;;;;;;3.55;2.08;;;;;;;14.19;100.00;96182.50;5050142;28;20643;-72
2022/06/20 06:19:12;;;;;;;2.92;1.50;;;;;;;14.13;100.00;96180.91;5048069;28;20341;-72
2022/06/20 06:21:38;;;;;;;2.28;1.23;;;;;;;13.95;100.00;96181.56;5048058;28;20151;-72
2022/06/20 06:24:06;;;;;;;4.82;1.50;;;;;;;13.94;100.00;96179.94;5049503;28;20293;-72
2022/06/20 06:26:35;;;;;;;2.80;1.65;;;;;;;14.09;100.00;96182.56;5048548;28;20128;-71
2022/06/20 06:29:02;;;;;;;3.67;1.80;;;;;;;14.06;100.00;96177.72;5050934;28;20048;-72
2022/06/20 06:31:40;;;;;;;4.00;1.80;;;;;;;14.07;100.00;96189.28;5048320;28;20148;-72
2022/06/20 06:34:20;;;;;;;6.38;1.80;;;;;;;14.00;100.00;96211.09;5046780;28;20245;-72
2022/06/20 06:36:53;;;;;;;3.42;1.92;;;;;;;13.87;100.00;96219.78;5048154;28;20033;-73
2022/06/20 06:39:36;;;;;;;3.38;2.10;;;;;;;13.82;100.00;96227.84;5046364;28;20048;-72
2022/06/20 06:42:08;;;;;;;3.75;2.17;;;;;;;13.70;100.00;96220.13;5051347;28;20132;-72
2022/06/20 06:44:42;;;;;;;7.88;2.50;;;;;;;13.68;100.00;96219.56;5046278;28;20041;-72
2022/06/20 06:47:44;;;;;;;4.15;2.53;;;;;;;13.73;100.00;96206.09;5048166;28;20345;-73
2022/06/20 06:50:29;;;;;;;5.63;2.92;;;;;;;13.79;100.00;96206.91;5044830;28;20049;-72
2022/06/20 06:53:01;;;;;;;3.80;2.67;;;;;;;13.90;100.00;96205.78;5049114;28;20500;-72
2022/06/20 06:55:33;;;;;;;5.72;2.42;;;;;;;13.91;100.00;96204.69;5046032;28;20032;-73
2022/06/20 06:58:20;;;;;;;3.83;2.25;;;;;;;13.64;100.00;96208.56;5052546;28;20503;-72
2022/06/20 07:00:52;;;;;;;4.15;2.25;;;;;;;13.54;100.00;96203.22;5036690;28;20099;-72
2022/06/20 07:03:43;;;;;;;4.00;2.17;;;;;;;13.72;100.00;96207.19;5046677;28;20098;-72
2022/06/20 07:06:17;;;;;;;3.75;2.03;;;;;;;13.77;100.00;96206.34;5046415;28;20055;-73
2022/06/20 07:09:17;;;;;;;4.35;1.70;;;;;;;13.72;100.00;96196.44;5048572;28;20119;-73
2022/06/20 07:12:09;;;;;;;3.17;1.90;;;;;;;13.81;100.00;96210.91;5043248;28;20049;-72
2022/06/20 07:14:42;;;;;;;3.95;2.20;;;;;;;13.97;100.00;96202.78;5032064;28;20044;-72
2022/06/20 07:17:43;;;;;;;4.75;2.13;;;;;;;13.90;100.00;96208.47;5032501;28;20425;-72
2022/06/20 07:20:11;;;;;;;4.35;1.77;;;;;;;14.11;100.00;96209.19;5047008;28;20048;-73
2022/06/20 07:22:40;;;;;;;4.80;1.92;;;;;;;14.29;100.00;96199.66;5038753;28;20423;-73
2022/06/20 07:25:13;;;;;;;6.10;2.22;;;;;;;14.47;100.00;96204.41;5048297;28;20051;-73
2022/06/20 07:27:48;;;;;;;3.58;2.00;;;;;;;14.77;100.00;96203.41;5048894;28;20047;-72
2022/06/20 07:30:18;;;;;;;3.50;1.55;;;;;;;14.81;100.00;96209.06;5046688;28;20049;-73
2022/06/20 07:32:49;;;;;;;4.47;1.90;;;;;;;14.81;100.00;96227.91;5047153;28;20052;-72
2022/06/20 07:35:19;;;;;;;4.65;1.83;;;;;;;14.86;100.00;96222.47;5047936;28;20076;-73
2022/06/20 07:38:14;;;;;;;2.75;1.50;;;;;;;14.85;100.00;96220.84;5049835;28;20400;-73
2022/06/20 07:41:05;;;;;;;3.53;1.92;;;;;;;15.13;100.00;96217.41;5048158;28;20032;-73
2022/06/20 07:43:37;;;;;;;2.55;1.40;;;;;;;14.79;100.00;96206.66;5044171;28;20615;-74
2022/06/20 07:46:17;;;;;;;3.47;1.30;;;;;;;14.58;100.00;96221.34;5048830;28;20626;-74
2022/06/20 07:48:47;;;;;;;3.67;1.70;;;;;;;14.49;100.00;96234.59;5031331;28;20041;-74
2022/06/20 07:51:21;;;;;;;3.38;1.65;;;;;;;14.50;100.00;96244.25;5031359;28;21006;-74
2022/06/20 07:54:08;;;;;;;3.10;1.58;;;;;;;14.55;100.00;96246.91;5039541;28;20044;-74
2022/06/20 07:56:50;;;;;;;2.83;1.30;;;;;;;14.19;100.00;96255.16;5063413;28;20049;-74
2022/06/20 07:59:20;;;;;;;;;;;;;;;14.12;100.00;96278.84;5034756;28;20425;-73
2022/06/20 08:01:54;;;;;;;3.88;1.60;;;;;;;14.30;100.00;96273.94;5033938;28;19931;-72
2022/06/20 08:04:28;;;;;;;3.08;1.13;;;;;;;14.30;100.00;96263.97;5053097;28;20044;-73
2022/06/20 08:07:05;;;;;;;3.25;1.50;;;;;;;14.32;100.00;96266.38;5034548;28;20043;-73
2022/06/20 08:09:35;;;;;;;2.72;1.23;;;;;;;14.21;100.00;96266.44;5004020;28;20064;-73
2022/06/20 08:12:30;;;;;;;4.88;1.63;;;;;;;14.06;100.00;96279.94;5049875;28;20492;-72
2022/06/20 08:15:03;;;;;;;5.68;1.70;;;;;;;13.77;100.00;96287.81;5030939;28;20136;-72
2022/06/20 08:17:30;;;;;;;2.97;1.60;;;;;;;13.71;100.00;96293.50;5035607;28;20033;-73
2022/06/20 08:19:58;;;;;;;2.63;1.30;;;;;;;13.61;100.00;96294.31;5044396;28;20126;-73
2022/06/20 08:22:39;;;;;;;2.90;1.17;;;;;;;13.71;100.00;96304.28;5019660;28;20040;-73
2022/06/20 08:25:12;;;;;;;2.22;1.10;;;;;;;13.65;100.00;96312.34;5031385;28;20048;-72
2022/06/20 08:27:45;;;;;;;3.90;1.10;;;;;;;13.47;100.00;96325.53;5033586;28;20045;-72
2022/06/20 08:30:14;;;;;;;5.20;1.08;;;;;;;13.24;100.00;96341.13;5065592;28;20558;-72
2022/06/20 08:32:51;;;;;;;2.10;1.10;;;;;;;13.27;100.00;96337.06;5001440;28;20064;-72
2022/06/20 08:35:49;;;;;;;5.80;3.92;;;;;;;13.16;100.00;96351.56;5033350;28;20045;-72
2022/06/20 08:38:39;;;;;;;4.07;1.25;;;;;;;13.06;100.00;96363.88;5030099;28;20061;-72
2022/06/20 08:41:05;;;;;;;2.50;1.10;;;;;;;12.95;100.00;96377.56;5046244;28;20197;-72
2022/06/20 08:44:21;;;;;;;2.60;1.17;;;;;;;12.99;100.00;96375.94;5032744;28;20036;-72
2022/06/20 08:47:13;;;;;;;5.60;1.13;;;;;;;13.15;100.00;96390.22;5003205;28;20049;-72
2022/06/20 08:49:54;;;;;;;4.28;1.25;;;;;;;13.03;100.00;96388.59;5002478;28;20049;-72
2022/06/20 08:52:26;;;;;;;2.38;1.23;;;;;;;13.03;100.00;96396.66;5040753;28;20037;-72
2022/06/20 08:55:13;;;;;;;2.78;1.30;;;;;;;12.96;100.00;96401.47;5004988;28;20549;-72
2022/06/20 08:58:02;;;;;;;3.28;1.52;;;;;;;12.81;100.00;96404.09;5034545;28;20104;-72
2022/06/20 09:00:50;;;;;;;3.00;1.13;;;;;;;12.88;100.00;96418.09;5032695;28;20037;-72
2022/06/20 09:03:22;;;;;;;5.45;1.40;;;;;;;12.79;100.00;96411.63;5034988;28;20105;-72
2022/06/20 09:06:12;;;;;;;3.00;1.55;;;;;;;12.87;100.00;96405.75;5034350;28;20044;-72
2022/06/20 09:09:13;;;;;;;4.43;1.30;;;;;;;12.65;100.00;96405.13;5000014;28;20796;-72
2022/06/20 09:11:44;;;;;;;3.47;1.70;;;;;;;12.62;100.00;96409.16;5034450;28;20041;-72
2022/06/20 09:14:31;;;;;;;2.97;1.23;;;;;;;12.68;100.00;96415.31;5051812;28;20207;-72
2022/06/20 09:17:21;;;;;;;3.47;1.65;;;;;;;12.72;100.00;96422.59;5034526;28;20041;-72
2022/06/20 09:20:15;;;;;;;3.27;1.47;;;;;;;12.74;100.00;96423.16;5048221;28;20549;-73
2022/06/20 09:22:58;;;;;;;4.88;1.65;;;;;;;12.55;100.00;96420.13;5047256;28;20033;-72
2022/06/20 09:25:56;;;;;;;5.43;2.08;;;;;;;12.46;100.00;96431.63;5031708;28;20060;-72
2022/06/20 09:28:24;;;;;;;4.65;2.08;;;;;;;12.41;100.00;96421.66;5047749;28;20095;-72
2022/06/20 09:31:17;;;;;;;4.00;2.42;;;;;;;12.45;100.00;96433.50;5049678;28;20045;-72
2022/06/20 09:34:04;;;;;;;4.00;2.38;;;;;;;12.37;100.00;96436.66;5053023;28;20439;-72
2022/06/20 09:36:45;;;;;;;6.82;2.70;;;;;;;12.11;100.00;96450.97;5051196;28;20039;-73
2022/06/20 09:39:29;;;;;;;6.13;2.70;;;;;;;12.23;100.00;96456.97;5014246;28;20068;-72
2022/06/20 09:42:15;;;;;;;4.75;2.63;;;;;;;12.36;100.00;96451.13;5051673;28;20040;-72
2022/06/20 09:44:51;;;;;;;4.03;2.22;;;;;;;12.34;100.00;96431.00;5038687;28;20056;-72
2022/06/20 09:47:41;;;;;;;4.00;2.00;;;;;;;12.36;100.00;96451.13;5049192;28;20086;-72
2022/06/20 09:50:37;;;;;;;3.72;2.00;;;;;;;12.17;100.00;96437.34;5049137;28;20041;-72
2022/06/20 09:53:19;;;;;;;3.67;1.90;;;;;;;12.20;100.00;96447.56;5053498;28;20048;-72
2022/06/20 09:56:03;;;;;;;;;;;;;;;12.18;100.00;96456.94;5023007;28;20040;-72
2022/06/20 09:58:41;;;;;;;3.05;1.00;;;;;;;12.09;100.00;96459.28;5066661;28;19928;-72
2022/06/20 10:01:10;;;;;;;2.60;1.00;;;;;;;11.94;100.00;96478.75;5053262;28;20060;-72
2022/06/20 10:03:53;;;;;;;3.58;1.00;;;;;;;11.97;100.00;96461.34;5069427;28;20403;-72
2022/06/20 10:06:31;;;;;;;2.28;0.98;;;;;;;11.93;100.00;96479.84;5049666;28;20056;-72
2022/06/20 10:09:11;;;;;;;1.88;0.90;;;;;;;11.75;100.00;96507.00;5050996;28;20045;-72
2022/06/20 10:11:43;;;;;;;3.28;1.08;;;;;;;11.78;100.00;96497.63;5051826;28;20047;-72
2022/06/20 10:14:21;;;;;;;5.28;1.40;;;;;;;11.69;100.00;96508.00;5048740;28;20071;-72
2022/06/20 10:17:03;;;;;;;2.63;1.13;;;;;;;11.69;100.00;96499.97;5027059;28;20052;-72
2022/06/20 10:19:55;;;;;;;3.05;1.40;;;;;;;11.66;100.00;96489.75;5024491;28;20044;-72
2022/06/20 10:22:37;;;;;;;;;;;;;;;11.81;100.00;96507.88;4353127;28;9999906;-72
2022/06/20 10:25:31;;;;;;;3.28;1.35;;;;;;;11.90;100.00;96501.78;4989788;28;20173;-73
2022/06/20 10:28:09;;;;;;;3.00;1.38;;;;;;;12.01;100.00;96502.69;5029510;28;20044;-72
2022/06/20 10:31:06;;;;;;;2.45;1.20;;;;;;;11.93;100.00;96493.25;5062771;28;20426;-72
2022/06/20 10:33:40;;;;;;;2.88;1.35;;;;;;;12.02;100.00;96490.09;5050240;28;20059;-72
2022/06/20 10:36:40;;;;;;;4.45;1.52;;;;;;;11.98;100.00;96495.13;5016186;28;20037;-72
2022/06/20 10:39:19;;;;;;;3.47;1.70;;;;;;;12.13;100.00;96499.81;5049037;28;20036;-72
2022/06/20 10:42:32;;;;;;;5.35;2.20;;;;;;;12.19;100.00;96507.66;5049386;28;20480;-72
2022/06/20 10:45:32;;;;;;;3.78;1.83;;;;;;;12.01;100.00;96526.00;5021021;28;20456;-73
2022/06/20 10:48:07;;;;;;;8.00;2.67;;;;;;;11.99;100.00;96529.75;5048525;28;20053;-72
2022/06/20 10:50:50;;;;;;;5.75;2.20;;;;;;;11.74;100.00;96550.94;5037329;28;20484;-72
2022/06/20 10:53:22;;;;;;;3.78;1.88;;;;;;;11.51;100.00;96565.44;5064264;28;20428;-72
2022/06/20 10:56:03;;;;;;;4.20;2.47;;;;;;;11.46;100.00;96575.31;5053174;28;20047;-72
2022/06/20 10:58:55;;;;;;;4.32;2.40;;;;;;;11.39;100.00;96575.50;5021033;28;20032;-72
2022/06/20 11:01:38;;;;;;;;;;;;;;;11.40;100.00;96569.88;5026726;28;20134;-72
2022/06/20 11:04:49;;;;;;;5.47;2.38;;;;;;;11.57;100.00;96577.03;5039146;28;19990;-72
2022/06/20 11:07:14;;;;;;;2.95;1.40;;;;;;;11.69;100.00;96562.44;5011776;28;20047;-73
2022/06/20 11:09:40;;;;;;;5.18;1.83;;;;;;;11.88;100.00;96549.50;5020073;28;20045;-72
2022/06/20 11:14:54;;;;;;;5.07;2.33;;;;;;;12.20;100.00;96536.09;1884380;23;20086;-72
2022/06/20 11:17:37;;;;;;;6.53;2.47;;;;;;;12.11;100.00;96542.19;4966396;28;20038;-72
2022/06/20 11:20:17;;;;;;;6.35;2.80;;;;;;;12.07;100.00;96543.78;4978953;28;20432;-72
2022/06/20 11:22:49;;;;;;;4.72;2.60;;;;;;;11.96;100.00;96532.13;4983249;28;20125;-72
2022/06/20 11:25:23;;;;;;;5.25;2.42;;;;;;;11.95;100.00;96535.88;4966310;28;20101;-72
2022/06/20 11:28:11;;;;;;;8.88;2.88;;;;;;;12.03;100.00;96527.38;4963730;28;20054;-72
2022/06/20 11:31:00;;;;;;;10.43;3.75;;;;;;;12.08;100.00;96534.66;4966235;28;20218;-72
2022/06/20 11:36:17;;;;;;;11.32;3.65;;;;;;;12.17;100.00;96527.75;4970032;28;20045;-72
2022/06/20 11:38:53;;;;;;;7.72;4.28;;;;;;;12.22;100.00;96530.47;4967514;28;20371;-72
2022/06/20 11:41:33;;;;;;;8.88;4.30;;;;;;;12.31;100.00;96533.50;4954830;28;20153;-72
2022/06/20 11:44:20;;;;;;;7.60;3.92;;;;;;;12.64;100.00;96535.84;4945019;28;20522;-72
2022/06/20 11:46:55;;;;;;;10.40;4.82;;;;;;;12.88;100.00;96538.94;4973551;28;20096;-72
2022/06/20 11:52:16;;;;;;;13.45;5.38;;;;;;;13.01;100.00;96543.03;4221282;23;20756;-72
2022/06/20 11:55:04;;;;;;;11.80;5.78;;;;;;;13.24;100.00;96549.91;4975696;28;20053;-72
2022/06/20 11:57:41;;;;;;;10.40;5.78;;;;;;;13.23;100.00;96556.31;4976598;28;20147;-72
2022/06/20 12:00:23;;;;;;;9.00;5.10;;;;;;;13.09;100.00;96562.16;4959115;28;20334;-72
2022/06/20 12:02:51;;;;;;;11.95;5.57;;;;;;;13.06;100.00;96553.78;4994423;28;20525;-72
2022/06/20 12:05:17;;;;;;;12.05;6.00;;;;;;;13.37;100.00;96547.50;4970311;28;20716;-72
2022/06/20 12:08:20;;;;;;;10.73;5.40;;;;;;;13.29;100.00;96557.97;4971917;28;20057;-72
2022/06/20 12:11:34;;;;;;;12.50;6.35;;;;;;;13.61;100.00;96542.47;4950658;28;20073;-72
2022/06/20 12:14:16;;;;;;;12.68;5.45;;;;;;;13.33;100.00;96549.13;4949795;28;20058;-72
2022/06/20 12:17:19;;;;;;;14.32;6.47;;;;;;;13.41;100.00;96544.31;4990534;28;20037;-72
2022/06/20 12:23:18;;;;;;;13.45;7.35;;;;;;;13.70;100.00;96540.09;4989455;28;20038;-72
2022/06/20 12:25:51;;;;;;;14.23;7.50;;;;;;;13.63;100.00;96526.91;4974938;28;20128;-72
2022/06/20 12:28:22;;;;;;;12.82;6.75;;;;;;;13.68;100.00;96519.91;4991391;28;20038;-72
2022/06/20 12:30:56;;;;;;;13.77;7.50;;;;;;;13.67;100.00;96532.53;4988517;28;20580;-72
2022/06/20 12:33:23;;;;;;;15.98;7.88;;;;;;;13.61;100.00;96541.66;4990169;28;20121;-72